Nearby METAR Reports

This page may be slow to load as it queries the National Weather Service for data.

KBIS - Bismarck, North Dakota, USA
Distance from station: S 10mi, 15km
Updated: Fri, 19-Oct-2018 4:52pm CDT
Clear
Clear
 Wind from NW
Wind: NW 28 mph , 44 km/h, Gust: 40 mph , 65 km/h
Temperature: 57°F , 14°C
Dew Point: 27°F , -3°C
Humidity: 31%
Barometer: 30.12 inHg , 1020 hPa
Clouds: Clear
Visibility: 10 miles , 16 km
2018/10/19 21:52 KBIS 192152Z 31024G35KT 10SM CLR 14/M03 A3012 RMK AO2 PK WND 29036/2116 SLP206 T01441028
KDIK - Dickinson, North Dakota, USA
Distance from station: W 95mi, 154km
Updated: Fri, 19-Oct-2018 4:56pm CDT
Clear
Clear
 Wind from NW
Wind: NW 20 mph , 31 km/h, Gust: 35 mph , 56 km/h
Temperature: 57°F , 14°C
Dew Point: 21°F , -6°C
Humidity: 25%
Barometer: 30.17 inHg , 1021.7 hPa
Clouds: Clear
Visibility: 10 miles , 16 km
2018/10/19 21:56 KDIK 192156Z AUTO 32017G30KT 10SM CLR 14/M06 A3017 RMK AO2 PK WND 31033/2139 SLP222 T01391056
 
KISN - Williston, North Dakota, USA
Distance from station: NNW 2mi, 2km
Updated: Fri, 19-Oct-2018 4:52pm CDT
Clear
Clear
 Wind from WNW
Wind: WNW 24 mph , 39 km/h, Gust: 31 mph , 50 km/h
Temperature: 59°F , 15°C
Dew Point: 25°F , -4°C
Humidity: 27%
Barometer: 30.19 inHg , 1022.4 hPa
Clouds: Clear
Visibility: 10 miles , 16 km
2018/10/19 21:52 KISN 192152Z AUTO 30021G27KT 10SM CLR 15/M04 A3019 RMK AO2 PK WND 31032/2124 SLP227 T01501039 TSNO
KFAR - Fargo, North Dakota, USA
Distance from station: NNW 4mi, 7km
Updated: Fri, 19-Oct-2018 4:53pm CDT
Partly cloudy
Partly cloudy
 Wind from NW
Wind: NW 23 mph , 37 km/h, Gust: 31 mph , 50 km/h
Temperature: 57°F , 14°C
Dew Point: 34°F , 1°C
Humidity: 41%
Barometer: 29.94 inHg , 1013.9 hPa
Clouds: Partly cloudy
Visibility: 10 miles , 16 km
Cloud details: Few Clouds 6000 ft
Partly cloudy 7000 ft
2018/10/19 21:53 KFAR 192153Z 32020G27KT 10SM FEW060 SCT070 14/01 A2994 RMK AO2 PK WND 32032/2054 SLP144 T01390011
 
KGFK - Grand Forks, North Dakota, USA
Distance from station: NNW 76mi, 123km
Updated: Fri, 19-Oct-2018 4:53pm CDT
Few Clouds
Few Clouds
 Wind from NW
Wind: NW 18 mph , 30 km/h, Gust: 30 mph , 48 km/h
Temperature: 55°F , 13°C
Dew Point: 34°F , 1°C
Humidity: 44%
Barometer: 29.92 inHg , 1013.2 hPa
Clouds: Few Clouds
Visibility: 10 miles , 16 km
Cloud details: Few Clouds 5500 ft
2018/10/19 21:53 KGFK 192153Z 32016G26KT 10SM FEW055 13/01 A2992 RMK AO2 PK WND 34031/2125 SLP137 T01330006
KMOT - Minot, North Dakota, USA
Distance from station: E 109mi, 175km
Updated: Fri, 19-Oct-2018 4:54pm CDT
Few Clouds
Few Clouds
 Wind from WNW
Wind: WNW 25 mph , 41 km/h, Gust: 38 mph , 61 km/h
Temperature: 55°F , 13°C
Dew Point: 28°F , -2°C
Humidity: 36%
Barometer: 30.08 inHg , 1018.6 hPa
Clouds: Few Clouds
Visibility: 10 miles , 16 km
Cloud details: Few Clouds 6000 ft
2018/10/19 21:54 KMOT 192154Z 29022G33KT 10SM FEW060 13/M02 A3008 RMK AO2 PK WND 29037/2137 SLP193 T01281017